Terminal Aerodrome Forecast
Issued by NWS

Home | Current Version | Previous Version | Text Only | Print | Product List | Glossary On
Versions: 1 2 3 4 5 6 7 8 9 10 11 12
000
FTUS44 KOUN 241738
TAFHBR
TAF
KHBR 241738Z 2418/2518 21025G35KT P6SM BKN070
     FM250000 34021KT P6SM FEW030 SCT080=

USA.gov is the U.S. government's official web portal to all federal, state and local government web resources and services.